sensor_id;sensor_type;location;lat;lon;timestamp;P1;durP1;ratioP1;P2;durP2;ratioP2
5662;SDS011;2854;42.692;23.364;2023-01-13T00:01:44;2.57;;;2.37;;
5662;SDS011;2854;42.692;23.364;2023-01-13T00:04:09;2.10;;;1.90;;
5662;SDS011;2854;42.692;23.364;2023-01-13T00:06:35;1.93;;;1.83;;
5662;SDS011;2854;42.692;23.364;2023-01-13T00:09:00;4.17;;;2.23;;
5662;SDS011;2854;42.692;23.364;2023-01-13T00:11:25;2.20;;;1.90;;
5662;SDS011;2854;42.692;23.364;2023-01-13T00:13:51;1.43;;;1.33;;
5662;SDS011;2854;42.692;23.364;2023-01-13T00:16:17;2.43;;;2.20;;
5662;SDS011;2854;42.692;23.364;2023-01-13T00:18:42;3.10;;;2.73;;
5662;SDS011;2854;42.692;23.364;2023-01-13T00:21:19;2.10;;;1.90;;
5662;SDS011;2854;42.692;23.364;2023-01-13T00:23:45;3.37;;;2.87;;
5662;SDS011;2854;42.692;23.364;2023-01-13T00:26:17;2.97;;;2.77;;
5662;SDS011;2854;42.692;23.364;2023-01-13T00:28:43;3.10;;;2.60;;
5662;SDS011;2854;42.692;23.364;2023-01-13T00:31:12;4.87;;;2.87;;
5662;SDS011;2854;42.692;23.364;2023-01-13T00:33:38;1.93;;;1.83;;
5662;SDS011;2854;42.692;23.364;2023-01-13T00:36:04;4.20;;;2.77;;
5662;SDS011;2854;42.692;23.364;2023-01-13T00:38:30;2.30;;;2.10;;
5662;SDS011;2854;42.692;23.364;2023-01-13T00:40:58;2.20;;;2.07;;
5662;SDS011;2854;42.692;23.364;2023-01-13T00:43:25;1.63;;;1.53;;
5662;SDS011;2854;42.692;23.364;2023-01-13T00:45:50;3.00;;;2.80;;
5662;SDS011;2854;42.692;23.364;2023-01-13T00:48:16;3.67;;;1.97;;
5662;SDS011;2854;42.692;23.364;2023-01-13T00:50:43;2.50;;;2.40;;
5662;SDS011;2854;42.692;23.364;2023-01-13T00:53:08;2.60;;;2.40;;
5662;SDS011;2854;42.692;23.364;2023-01-13T00:55:33;1.80;;;1.70;;
5662;SDS011;2854;42.692;23.364;2023-01-13T00:57:58;3.20;;;2.43;;
5662;SDS011;2854;42.692;23.364;2023-01-13T01:00:30;3.47;;;2.80;;
5662;SDS011;2854;42.692;23.364;2023-01-13T01:02:56;3.80;;;3.50;;
5662;SDS011;2854;42.692;23.364;2023-01-13T01:05:21;4.00;;;2.30;;
5662;SDS011;2854;42.692;23.364;2023-01-13T01:07:47;3.57;;;2.93;;
5662;SDS011;2854;42.692;23.364;2023-01-13T01:10:12;2.87;;;2.67;;
5662;SDS011;2854;42.692;23.364;2023-01-13T01:12:37;3.60;;;3.30;;
5662;SDS011;2854;42.692;23.364;2023-01-13T01:15:04;3.20;;;2.90;;
5662;SDS011;2854;42.692;23.364;2023-01-13T01:17:31;2.53;;;2.40;;
5662;SDS011;2854;42.692;23.364;2023-01-13T01:19:56;2.97;;;2.67;;
5662;SDS011;2854;42.692;23.364;2023-01-13T01:22:22;5.93;;;2.90;;
5662;SDS011;2854;42.692;23.364;2023-01-13T01:24:47;2.60;;;2.37;;
5662;SDS011;2854;42.692;23.364;2023-01-13T01:27:12;4.30;;;3.20;;
5662;SDS011;2854;42.692;23.364;2023-01-13T01:29:37;3.60;;;3.30;;
5662;SDS011;2854;42.692;23.364;2023-01-13T01:32:03;3.20;;;2.50;;
5662;SDS011;2854;42.692;23.364;2023-01-13T01:34:28;2.80;;;2.53;;
5662;SDS011;2854;42.692;23.364;2023-01-13T01:36:53;2.63;;;2.43;;
5662;SDS011;2854;42.692;23.364;2023-01-13T01:39:18;5.07;;;2.90;;
5662;SDS011;2854;42.692;23.364;2023-01-13T01:41:44;3.07;;;2.80;;
5662;SDS011;2854;42.692;23.364;2023-01-13T01:47:07;2.80;;;2.40;;
5662;SDS011;2854;42.692;23.364;2023-01-13T01:49:33;3.50;;;2.30;;
5662;SDS011;2854;42.692;23.364;2023-01-13T01:52:05;3.63;;;3.43;;
5662;SDS011;2854;42.692;23.364;2023-01-13T01:54:34;2.83;;;2.37;;
5662;SDS011;2854;42.692;23.364;2023-01-13T01:57:01;2.87;;;2.23;;
5662;SDS011;2854;42.692;23.364;2023-01-13T01:59:27;3.53;;;1.93;;
5662;SDS011;2854;42.692;23.364;2023-01-13T02:01:54;3.33;;;2.53;;
5662;SDS011;2854;42.692;23.364;2023-01-13T02:04:21;2.57;;;2.40;;
5662;SDS011;2854;42.692;23.364;2023-01-13T02:06:47;2.70;;;2.50;;
5662;SDS011;2854;42.692;23.364;2023-01-13T02:09:13;2.57;;;2.30;;
5662;SDS011;2854;42.692;23.364;2023-01-13T02:11:38;3.03;;;2.93;;
5662;SDS011;2854;42.692;23.364;2023-01-13T02:14:22;3.00;;;2.80;;
5662;SDS011;2854;42.692;23.364;2023-01-13T02:16:53;2.30;;;2.20;;
5662;SDS011;2854;42.692;23.364;2023-01-13T02:35:36;21.87;;;3.10;;
5662;SDS011;2854;42.692;23.364;2023-01-13T02:38:04;2.30;;;1.97;;
5662;SDS011;2854;42.692;23.364;2023-01-13T02:40:45;2.47;;;2.27;;
5662;SDS011;2854;42.692;23.364;2023-01-13T02:43:16;1.87;;;1.77;;
5662;SDS011;2854;42.692;23.364;2023-01-13T02:46:06;3.23;;;1.77;;
5662;SDS011;2854;42.692;23.364;2023-01-13T02:48:33;1.53;;;1.43;;
5662;SDS011;2854;42.692;23.364;2023-01-13T02:51:08;2.37;;;2.27;;
5662;SDS011;2854;42.692;23.364;2023-01-13T02:53:53;2.93;;;2.63;;
5662;SDS011;2854;42.692;23.364;2023-01-13T02:56:21;2.20;;;2.00;;
5662;SDS011;2854;42.692;23.364;2023-01-13T02:58:47;3.93;;;2.40;;
5662;SDS011;2854;42.692;23.364;2023-01-13T03:01:13;5.50;;;2.63;;
5662;SDS011;2854;42.692;23.364;2023-01-13T03:03:38;3.90;;;2.60;;
5662;SDS011;2854;42.692;23.364;2023-01-13T03:11:10;4.93;;;2.30;;
5662;SDS011;2854;42.692;23.364;2023-01-13T03:21:07;2.30;;;2.10;;
5662;SDS011;2854;42.692;23.364;2023-01-13T03:26:07;3.70;;;2.73;;
5662;SDS011;2854;42.692;23.364;2023-01-13T03:28:38;2.83;;;2.63;;
5662;SDS011;2854;42.692;23.364;2023-01-13T03:31:07;2.13;;;2.03;;
5662;SDS011;2854;42.692;23.364;2023-01-13T03:33:35;2.73;;;2.60;;
5662;SDS011;2854;42.692;23.364;2023-01-13T03:36:04;4.00;;;3.37;;
5662;SDS011;2854;42.692;23.364;2023-01-13T03:38:33;3.33;;;2.50;;
5662;SDS011;2854;42.692;23.364;2023-01-13T03:41:04;3.50;;;2.10;;
5662;SDS011;2854;42.692;23.364;2023-01-13T03:43:34;3.57;;;2.60;;
5662;SDS011;2854;42.692;23.364;2023-01-13T03:46:35;2.90;;;2.60;;
5662;SDS011;2854;42.692;23.364;2023-01-13T03:49:04;2.87;;;2.30;;
5662;SDS011;2854;42.692;23.364;2023-01-13T03:51:31;6.00;;;2.17;;
5662;SDS011;2854;42.692;23.364;2023-01-13T03:54:02;3.93;;;3.47;;
5662;SDS011;2854;42.692;23.364;2023-01-13T03:56:30;2.70;;;2.50;;
5662;SDS011;2854;42.692;23.364;2023-01-13T03:58:56;2.27;;;1.83;;
5662;SDS011;2854;42.692;23.364;2023-01-13T04:01:28;4.43;;;3.47;;
5662;SDS011;2854;42.692;23.364;2023-01-13T04:03:56;2.70;;;2.50;;
5662;SDS011;2854;42.692;23.364;2023-01-13T04:08:56;2.40;;;2.20;;
5662;SDS011;2854;42.692;23.364;2023-01-13T04:11:33;2.33;;;2.17;;
5662;SDS011;2854;42.692;23.364;2023-01-13T04:13:59;2.63;;;2.53;;
5662;SDS011;2854;42.692;23.364;2023-01-13T04:16:26;2.30;;;2.10;;
5662;SDS011;2854;42.692;23.364;2023-01-13T04:18:51;2.00;;;1.90;;
5662;SDS011;2854;42.692;23.364;2023-01-13T04:21:17;2.37;;;2.10;;
5662;SDS011;2854;42.692;23.364;2023-01-13T04:23:42;2.83;;;2.63;;
5662;SDS011;2854;42.692;23.364;2023-01-13T04:26:07;2.13;;;2.00;;
5662;SDS011;2854;42.692;23.364;2023-01-13T04:28:32;2.43;;;2.23;;
5662;SDS011;2854;42.692;23.364;2023-01-13T04:30:59;5.50;;;3.57;;
5662;SDS011;2854;42.692;23.364;2023-01-13T04:33:24;3.33;;;2.60;;
5662;SDS011;2854;42.692;23.364;2023-01-13T04:35:49;4.63;;;3.40;;
5662;SDS011;2854;42.692;23.364;2023-01-13T04:38:17;2.00;;;1.90;;
5662;SDS011;2854;42.692;23.364;2023-01-13T04:40:42;2.57;;;2.33;;
5662;SDS011;2854;42.692;23.364;2023-01-13T04:43:08;2.00;;;1.90;;
5662;SDS011;2854;42.692;23.364;2023-01-13T04:45:33;3.33;;;2.57;;
5662;SDS011;2854;42.692;23.364;2023-01-13T04:47:59;2.20;;;2.00;;
5662;SDS011;2854;42.692;23.364;2023-01-13T04:50:24;5.27;;;1.80;;
5662;SDS011;2854;42.692;23.364;2023-01-13T04:52:49;2.63;;;2.43;;
5662;SDS011;2854;42.692;23.364;2023-01-13T04:55:15;3.70;;;3.40;;
5662;SDS011;2854;42.692;23.364;2023-01-13T04:57:41;4.27;;;3.00;;
5662;SDS011;2854;42.692;23.364;2023-01-13T05:00:06;2.70;;;2.40;;
5662;SDS011;2854;42.692;23.364;2023-01-13T05:02:32;2.40;;;2.20;;
5662;SDS011;2854;42.692;23.364;2023-01-13T05:04:57;3.00;;;2.80;;
5662;SDS011;2854;42.692;23.364;2023-01-13T05:07:23;2.67;;;2.47;;
5662;SDS011;2854;42.692;23.364;2023-01-13T05:09:48;2.77;;;2.50;;
5662;SDS011;2854;42.692;23.364;2023-01-13T05:12:13;3.33;;;2.43;;
5662;SDS011;2854;42.692;23.364;2023-01-13T05:14:57;3.30;;;2.67;;
5662;SDS011;2854;42.692;23.364;2023-01-13T05:17:41;4.27;;;2.60;;
5662;SDS011;2854;42.692;23.364;2023-01-13T05:20:07;3.07;;;2.80;;
5662;SDS011;2854;42.692;23.364;2023-01-13T05:22:32;1.53;;;1.43;;
5662;SDS011;2854;42.692;23.364;2023-01-13T05:25:16;1.97;;;1.80;;
5662;SDS011;2854;42.692;23.364;2023-01-13T05:27:48;5.10;;;3.03;;
5662;SDS011;2854;42.692;23.364;2023-01-13T05:30:14;4.60;;;3.40;;
5662;SDS011;2854;42.692;23.364;2023-01-13T05:32:40;2.97;;;2.70;;
5662;SDS011;2854;42.692;23.364;2023-01-13T05:35:06;3.10;;;2.80;;
5662;SDS011;2854;42.692;23.364;2023-01-13T05:37:31;3.20;;;2.93;;
5662;SDS011;2854;42.692;23.364;2023-01-13T05:39:56;3.00;;;2.80;;
5662;SDS011;2854;42.692;23.364;2023-01-13T05:42:40;4.27;;;3.43;;
5662;SDS011;2854;42.692;23.364;2023-01-13T05:45:24;8.10;;;3.53;;
5662;SDS011;2854;42.692;23.364;2023-01-13T05:47:50;3.10;;;2.87;;
5662;SDS011;2854;42.692;23.364;2023-01-13T05:50:15;10.20;;;2.70;;
5662;SDS011;2854;42.692;23.364;2023-01-13T05:52:41;6.13;;;3.07;;
5662;SDS011;2854;42.692;23.364;2023-01-13T05:55:07;3.67;;;3.37;;
5662;SDS011;2854;42.692;23.364;2023-01-13T05:57:33;9.50;;;3.37;;
5662;SDS011;2854;42.692;23.364;2023-01-13T05:59:58;4.13;;;3.40;;
5662;SDS011;2854;42.692;23.364;2023-01-13T06:02:23;6.40;;;3.53;;
5662;SDS011;2854;42.692;23.364;2023-01-13T06:04:50;7.27;;;6.00;;
5662;SDS011;2854;42.692;23.364;2023-01-13T06:07:15;9.93;;;5.07;;
5662;SDS011;2854;42.692;23.364;2023-01-13T06:09:40;10.53;;;7.13;;
5662;SDS011;2854;42.692;23.364;2023-01-13T06:12:06;6.80;;;5.00;;
5662;SDS011;2854;42.692;23.364;2023-01-13T06:14:31;7.03;;;4.73;;
5662;SDS011;2854;42.692;23.364;2023-01-13T06:17:13;5.27;;;4.30;;
5662;SDS011;2854;42.692;23.364;2023-01-13T06:19:39;4.43;;;3.13;;
5662;SDS011;2854;42.692;23.364;2023-01-13T06:22:12;3.57;;;3.20;;
5662;SDS011;2854;42.692;23.364;2023-01-13T06:24:37;8.37;;;3.77;;
5662;SDS011;2854;42.692;23.364;2023-01-13T06:27:04;6.70;;;4.03;;
5662;SDS011;2854;42.692;23.364;2023-01-13T06:29:32;7.07;;;3.83;;
5662;SDS011;2854;42.692;23.364;2023-01-13T06:31:58;4.60;;;3.63;;
5662;SDS011;2854;42.692;23.364;2023-01-13T06:34:26;4.07;;;3.47;;
5662;SDS011;2854;42.692;23.364;2023-01-13T06:36:51;4.70;;;3.80;;
5662;SDS011;2854;42.692;23.364;2023-01-13T06:39:19;5.90;;;3.60;;
5662;SDS011;2854;42.692;23.364;2023-01-13T06:41:46;5.33;;;4.07;;
5662;SDS011;2854;42.692;23.364;2023-01-13T06:44:31;3.93;;;3.60;;
5662;SDS011;2854;42.692;23.364;2023-01-13T06:46:56;3.97;;;3.33;;
5662;SDS011;2854;42.692;23.364;2023-01-13T06:49:21;8.93;;;5.20;;
5662;SDS011;2854;42.692;23.364;2023-01-13T06:51:46;5.30;;;4.30;;
5662;SDS011;2854;42.692;23.364;2023-01-13T06:54:12;5.23;;;4.70;;
5662;SDS011;2854;42.692;23.364;2023-01-13T06:56:37;3.60;;;3.17;;
5662;SDS011;2854;42.692;23.364;2023-01-13T06:59:02;5.03;;;3.80;;
5662;SDS011;2854;42.692;23.364;2023-01-13T07:01:28;5.23;;;3.40;;
5662;SDS011;2854;42.692;23.364;2023-01-13T07:03:53;6.10;;;3.60;;
5662;SDS011;2854;42.692;23.364;2023-01-13T07:06:18;4.30;;;3.47;;
5662;SDS011;2854;42.692;23.364;2023-01-13T07:08:44;9.17;;;3.43;;
5662;SDS011;2854;42.692;23.364;2023-01-13T07:11:09;5.40;;;4.20;;
5662;SDS011;2854;42.692;23.364;2023-01-13T07:13:34;4.37;;;3.90;;
5662;SDS011;2854;42.692;23.364;2023-01-13T07:16:18;4.87;;;3.53;;
5662;SDS011;2854;42.692;23.364;2023-01-13T07:18:43;8.13;;;4.73;;
5662;SDS011;2854;42.692;23.364;2023-01-13T07:21:09;6.10;;;3.70;;
5662;SDS011;2854;42.692;23.364;2023-01-13T07:23:37;4.20;;;3.13;;
5662;SDS011;2854;42.692;23.364;2023-01-13T07:26:04;3.90;;;3.40;;
5662;SDS011;2854;42.692;23.364;2023-01-13T07:28:30;3.10;;;2.90;;
5662;SDS011;2854;42.692;23.364;2023-01-13T07:30:55;5.00;;;4.47;;
5662;SDS011;2854;42.692;23.364;2023-01-13T07:33:21;8.67;;;5.50;;
5662;SDS011;2854;42.692;23.364;2023-01-13T07:35:47;4.53;;;4.13;;
5662;SDS011;2854;42.692;23.364;2023-01-13T07:38:12;4.77;;;3.70;;
5662;SDS011;2854;42.692;23.364;2023-01-13T07:40:38;5.77;;;3.93;;
5662;SDS011;2854;42.692;23.364;2023-01-13T07:43:03;4.67;;;4.27;;
5662;SDS011;2854;42.692;23.364;2023-01-13T07:45:47;8.77;;;4.27;;
5662;SDS011;2854;42.692;23.364;2023-01-13T07:48:12;8.97;;;3.20;;
5662;SDS011;2854;42.692;23.364;2023-01-13T07:50:38;4.20;;;3.80;;
5662;SDS011;2854;42.692;23.364;2023-01-13T07:53:03;6.57;;;4.40;;
5662;SDS011;2854;42.692;23.364;2023-01-13T07:55:29;7.03;;;3.80;;
5662;SDS011;2854;42.692;23.364;2023-01-13T07:57:54;6.90;;;3.50;;
5662;SDS011;2854;42.692;23.364;2023-01-13T08:00:19;4.13;;;3.80;;
5662;SDS011;2854;42.692;23.364;2023-01-13T08:02:45;6.50;;;3.70;;
5662;SDS011;2854;42.692;23.364;2023-01-13T08:05:10;4.93;;;3.73;;
5662;SDS011;2854;42.692;23.364;2023-01-13T08:07:35;6.23;;;3.43;;
5662;SDS011;2854;42.692;23.364;2023-01-13T08:10:01;3.63;;;3.33;;
5662;SDS011;2854;42.692;23.364;2023-01-13T08:12:27;4.87;;;3.33;;
5662;SDS011;2854;42.692;23.364;2023-01-13T08:15:10;6.03;;;4.50;;
5662;SDS011;2854;42.692;23.364;2023-01-13T08:17:36;6.10;;;4.83;;
5662;SDS011;2854;42.692;23.364;2023-01-13T08:20:02;7.13;;;5.43;;
5662;SDS011;2854;42.692;23.364;2023-01-13T08:22:27;6.43;;;5.17;;
5662;SDS011;2854;42.692;23.364;2023-01-13T08:24:55;7.90;;;4.17;;
5662;SDS011;2854;42.692;23.364;2023-01-13T08:27:20;7.03;;;4.03;;
5662;SDS011;2854;42.692;23.364;2023-01-13T08:29:45;4.77;;;3.50;;
5662;SDS011;2854;42.692;23.364;2023-01-13T08:32:10;4.73;;;4.13;;
5662;SDS011;2854;42.692;23.364;2023-01-13T08:34:36;7.97;;;4.60;;
5662;SDS011;2854;42.692;23.364;2023-01-13T08:37:01;5.50;;;5.00;;
5662;SDS011;2854;42.692;23.364;2023-01-13T08:39:26;5.47;;;4.50;;
5662;SDS011;2854;42.692;23.364;2023-01-13T08:41:51;5.80;;;4.03;;
5662;SDS011;2854;42.692;23.364;2023-01-13T08:44:20;7.40;;;5.03;;
5662;SDS011;2854;42.692;23.364;2023-01-13T08:46:46;18.47;;;4.47;;
5662;SDS011;2854;42.692;23.364;2023-01-13T08:49:11;3.17;;;2.90;;
5662;SDS011;2854;42.692;23.364;2023-01-13T08:51:36;4.20;;;3.80;;
5662;SDS011;2854;42.692;23.364;2023-01-13T08:54:02;6.17;;;4.20;;
5662;SDS011;2854;42.692;23.364;2023-01-13T08:56:30;4.23;;;2.97;;
5662;SDS011;2854;42.692;23.364;2023-01-13T08:58:59;5.63;;;4.53;;
5662;SDS011;2854;42.692;23.364;2023-01-13T09:01:24;3.47;;;2.70;;
5662;SDS011;2854;42.692;23.364;2023-01-13T09:03:50;4.93;;;4.17;;
5662;SDS011;2854;42.692;23.364;2023-01-13T09:06:15;10.57;;;4.10;;
5662;SDS011;2854;42.692;23.364;2023-01-13T09:08:41;11.50;;;3.13;;
5662;SDS011;2854;42.692;23.364;2023-01-13T09:11:06;5.87;;;4.57;;
5662;SDS011;2854;42.692;23.364;2023-01-13T09:13:52;5.90;;;3.70;;
5662;SDS011;2854;42.692;23.364;2023-01-13T09:16:17;7.30;;;4.20;;
5662;SDS011;2854;42.692;23.364;2023-01-13T09:18:42;6.70;;;4.30;;
5662;SDS011;2854;42.692;23.364;2023-01-13T09:21:08;6.33;;;4.00;;
5662;SDS011;2854;42.692;23.364;2023-01-13T09:23:34;3.87;;;3.30;;
5662;SDS011;2854;42.692;23.364;2023-01-13T09:25:59;4.33;;;3.93;;
5662;SDS011;2854;42.692;23.364;2023-01-13T09:28:24;4.73;;;3.67;;
5662;SDS011;2854;42.692;23.364;2023-01-13T09:30:50;4.07;;;3.30;;
5662;SDS011;2854;42.692;23.364;2023-01-13T09:33:15;6.10;;;3.47;;
5662;SDS011;2854;42.692;23.364;2023-01-13T09:35:59;5.00;;;3.97;;
5662;SDS011;2854;42.692;23.364;2023-01-13T09:38:25;4.50;;;3.93;;
5662;SDS011;2854;42.692;23.364;2023-01-13T09:40:50;6.10;;;4.20;;
5662;SDS011;2854;42.692;23.364;2023-01-13T09:43:17;3.40;;;3.10;;
5662;SDS011;2854;42.692;23.364;2023-01-13T09:46:09;6.10;;;3.33;;
5662;SDS011;2854;42.692;23.364;2023-01-13T09:48:58;2.90;;;2.70;;
5662;SDS011;2854;42.692;23.364;2023-01-13T09:51:27;5.20;;;2.20;;
5662;SDS011;2854;42.692;23.364;2023-01-13T09:53:59;2.40;;;2.20;;
5662;SDS011;2854;42.692;23.364;2023-01-13T09:56:27;2.93;;;2.67;;
5662;SDS011;2854;42.692;23.364;2023-01-13T09:58:52;2.53;;;2.20;;
5662;SDS011;2854;42.692;23.364;2023-01-13T10:01:28;1.80;;;1.70;;
5662;SDS011;2854;42.692;23.364;2023-01-13T10:03:55;2.57;;;1.87;;
5662;SDS011;2854;42.692;23.364;2023-01-13T10:08:46;2.10;;;2.00;;
5662;SDS011;2854;42.692;23.364;2023-01-13T10:11:22;2.97;;;2.77;;
5662;SDS011;2854;42.692;23.364;2023-01-13T10:14:26;3.77;;;2.57;;
5662;SDS011;2854;42.692;23.364;2023-01-13T10:19:38;2.63;;;1.90;;
5662;SDS011;2854;42.692;23.364;2023-01-13T10:27:36;1.40;;;1.30;;
5662;SDS011;2854;42.692;23.364;2023-01-13T10:32:45;1.67;;;1.57;;
5662;SDS011;2854;42.692;23.364;2023-01-13T10:35:11;1.90;;;1.63;;
5662;SDS011;2854;42.692;23.364;2023-01-13T10:37:36;1.90;;;1.80;;
5662;SDS011;2854;42.692;23.364;2023-01-13T10:40:03;2.80;;;2.40;;
5662;SDS011;2854;42.692;23.364;2023-01-13T10:42:29;2.83;;;2.63;;
5662;SDS011;2854;42.692;23.364;2023-01-13T10:44:58;2.70;;;2.20;;
5662;SDS011;2854;42.692;23.364;2023-01-13T10:47:30;3.37;;;1.70;;
5662;SDS011;2854;42.692;23.364;2023-01-13T10:52:25;2.80;;;2.03;;
5662;SDS011;2854;42.692;23.364;2023-01-13T10:54:51;2.47;;;2.27;;
5662;SDS011;2854;42.692;23.364;2023-01-13T10:57:18;3.30;;;2.23;;
5662;SDS011;2854;42.692;23.364;2023-01-13T10:59:44;3.37;;;2.70;;
5662;SDS011;2854;42.692;23.364;2023-01-13T11:02:23;2.90;;;2.43;;
5662;SDS011;2854;42.692;23.364;2023-01-13T11:07:27;3.00;;;2.37;;
5662;SDS011;2854;42.692;23.364;2023-01-13T11:12:48;1.20;;;1.10;;
5662;SDS011;2854;42.692;23.364;2023-01-13T11:15:17;1.90;;;1.50;;
5662;SDS011;2854;42.692;23.364;2023-01-13T11:20:22;3.60;;;2.97;;
5662;SDS011;2854;42.692;23.364;2023-01-13T11:22:53;5.50;;;2.20;;
5662;SDS011;2854;42.692;23.364;2023-01-13T11:27:46;5.83;;;2.77;;
5662;SDS011;2854;42.692;23.364;2023-01-13T11:35:25;1.40;;;1.30;;
5662;SDS011;2854;42.692;23.364;2023-01-13T11:37:52;1.27;;;1.17;;
5662;SDS011;2854;42.692;23.364;2023-01-13T11:40:33;1.17;;;1.07;;
5662;SDS011;2854;42.692;23.364;2023-01-13T11:45:41;5.20;;;2.07;;
5662;SDS011;2854;42.692;23.364;2023-01-13T11:48:11;1.67;;;1.47;;
5662;SDS011;2854;42.692;23.364;2023-01-13T11:53:38;4.07;;;2.93;;
5662;SDS011;2854;42.692;23.364;2023-01-13T12:06:46;4.97;;;3.30;;
5662;SDS011;2854;42.692;23.364;2023-01-13T12:17:32;2.07;;;1.90;;
5662;SDS011;2854;42.692;23.364;2023-01-13T12:19:58;4.67;;;3.07;;
5662;SDS011;2854;42.692;23.364;2023-01-13T12:22:27;3.90;;;3.10;;
5662;SDS011;2854;42.692;23.364;2023-01-13T12:24:54;5.03;;;3.23;;
5662;SDS011;2854;42.692;23.364;2023-01-13T12:27:40;3.33;;;3.03;;
5662;SDS011;2854;42.692;23.364;2023-01-13T12:30:28;3.60;;;2.40;;
5662;SDS011;2854;42.692;23.364;2023-01-13T12:33:02;3.13;;;2.83;;
5662;SDS011;2854;42.692;23.364;2023-01-13T12:43:17;3.63;;;3.33;;
5662;SDS011;2854;42.692;23.364;2023-01-13T12:51:24;2.37;;;2.17;;
5662;SDS011;2854;42.692;23.364;2023-01-13T12:53:50;3.07;;;2.73;;
5662;SDS011;2854;42.692;23.364;2023-01-13T13:01:47;1.90;;;1.80;;
5662;SDS011;2854;42.692;23.364;2023-01-13T13:04:14;3.27;;;2.97;;
5662;SDS011;2854;42.692;23.364;2023-01-13T13:06:41;1.97;;;1.67;;
5662;SDS011;2854;42.692;23.364;2023-01-13T13:11:43;2.70;;;2.47;;
5662;SDS011;2854;42.692;23.364;2023-01-13T13:17:01;2.60;;;2.40;;
5662;SDS011;2854;42.692;23.364;2023-01-13T13:24:39;7.40;;;2.73;;
5662;SDS011;2854;42.692;23.364;2023-01-13T13:37:33;7.03;;;2.60;;
5662;SDS011;2854;42.692;23.364;2023-01-13T13:40:24;1.93;;;1.83;;
5662;SDS011;2854;42.692;23.364;2023-01-13T13:43:09;2.63;;;2.43;;
5662;SDS011;2854;42.692;23.364;2023-01-13T13:45:53;3.47;;;2.17;;
5662;SDS011;2854;42.692;23.364;2023-01-13T13:48:38;6.93;;;3.77;;
5662;SDS011;2854;42.692;23.364;2023-01-13T13:51:15;2.67;;;2.47;;
5662;SDS011;2854;42.692;23.364;2023-01-13T13:53:54;3.03;;;2.83;;
5662;SDS011;2854;42.692;23.364;2023-01-13T13:56:23;2.47;;;2.27;;
5662;SDS011;2854;42.692;23.364;2023-01-13T13:58:50;8.00;;;2.90;;
5662;SDS011;2854;42.692;23.364;2023-01-13T14:01:27;3.90;;;3.50;;
5662;SDS011;2854;42.692;23.364;2023-01-13T14:04:06;2.90;;;2.70;;
5662;SDS011;2854;42.692;23.364;2023-01-13T14:06:34;4.47;;;3.47;;
5662;SDS011;2854;42.692;23.364;2023-01-13T14:09:01;3.43;;;2.90;;
5662;SDS011;2854;42.692;23.364;2023-01-13T14:11:30;3.30;;;3.00;;
5662;SDS011;2854;42.692;23.364;2023-01-13T14:16:27;7.20;;;3.03;;
5662;SDS011;2854;42.692;23.364;2023-01-13T14:18:53;3.37;;;3.10;;
5662;SDS011;2854;42.692;23.364;2023-01-13T14:21:19;3.57;;;2.90;;
5662;SDS011;2854;42.692;23.364;2023-01-13T14:23:54;4.00;;;3.60;;
5662;SDS011;2854;42.692;23.364;2023-01-13T14:26:27;3.20;;;2.57;;
5662;SDS011;2854;42.692;23.364;2023-01-13T14:28:53;4.13;;;3.03;;
5662;SDS011;2854;42.692;23.364;2023-01-13T14:31:19;8.33;;;3.77;;
5662;SDS011;2854;42.692;23.364;2023-01-13T14:33:45;4.97;;;2.97;;
5662;SDS011;2854;42.692;23.364;2023-01-13T14:36:21;3.93;;;3.60;;
5662;SDS011;2854;42.692;23.364;2023-01-13T14:38:48;3.07;;;2.77;;
5662;SDS011;2854;42.692;23.364;2023-01-13T14:41:18;4.50;;;3.87;;
5662;SDS011;2854;42.692;23.364;2023-01-13T14:43:45;2.90;;;2.70;;
5662;SDS011;2854;42.692;23.364;2023-01-13T14:46:11;5.10;;;3.50;;
5662;SDS011;2854;42.692;23.364;2023-01-13T14:48:36;4.17;;;3.10;;
5662;SDS011;2854;42.692;23.364;2023-01-13T14:51:04;8.33;;;4.80;;
5662;SDS011;2854;42.692;23.364;2023-01-13T14:53:44;7.37;;;4.97;;
5662;SDS011;2854;42.692;23.364;2023-01-13T14:58:55;11.93;;;6.43;;
5662;SDS011;2854;42.692;23.364;2023-01-13T15:01:33;3.90;;;3.53;;
5662;SDS011;2854;42.692;23.364;2023-01-13T15:06:45;4.43;;;3.97;;
5662;SDS011;2854;42.692;23.364;2023-01-13T15:09:13;5.97;;;4.70;;
5662;SDS011;2854;42.692;23.364;2023-01-13T15:11:38;7.63;;;4.40;;
5662;SDS011;2854;42.692;23.364;2023-01-13T15:14:08;4.10;;;3.73;;
5662;SDS011;2854;42.692;23.364;2023-01-13T15:16:34;7.60;;;5.03;;
5662;SDS011;2854;42.692;23.364;2023-01-13T15:19:00;6.80;;;4.60;;
5662;SDS011;2854;42.692;23.364;2023-01-13T15:21:26;10.00;;;5.77;;
5662;SDS011;2854;42.692;23.364;2023-01-13T15:23:51;5.90;;;5.30;;
5662;SDS011;2854;42.692;23.364;2023-01-13T15:28:45;6.40;;;3.90;;
5662;SDS011;2854;42.692;23.364;2023-01-13T15:31:10;6.93;;;3.80;;
5662;SDS011;2854;42.692;23.364;2023-01-13T15:33:36;8.33;;;5.00;;
5662;SDS011;2854;42.692;23.364;2023-01-13T15:36:01;5.43;;;3.87;;
5662;SDS011;2854;42.692;23.364;2023-01-13T15:38:26;8.53;;;4.60;;
5662;SDS011;2854;42.692;23.364;2023-01-13T15:40:52;4.47;;;4.07;;
5662;SDS011;2854;42.692;23.364;2023-01-13T15:43:21;10.13;;;4.00;;
5662;SDS011;2854;42.692;23.364;2023-01-13T15:46:12;7.93;;;5.50;;
5662;SDS011;2854;42.692;23.364;2023-01-13T15:48:59;8.50;;;5.10;;
5662;SDS011;2854;42.692;23.364;2023-01-13T15:51:24;10.33;;;4.77;;
5662;SDS011;2854;42.692;23.364;2023-01-13T15:53:50;5.17;;;4.70;;
5662;SDS011;2854;42.692;23.364;2023-01-13T15:56:22;10.47;;;6.53;;
5662;SDS011;2854;42.692;23.364;2023-01-13T15:58:48;10.77;;;6.73;;
5662;SDS011;2854;42.692;23.364;2023-01-13T16:01:14;9.80;;;6.07;;
5662;SDS011;2854;42.692;23.364;2023-01-13T16:03:39;6.90;;;5.30;;
5662;SDS011;2854;42.692;23.364;2023-01-13T16:06:09;8.13;;;4.77;;
5662;SDS011;2854;42.692;23.364;2023-01-13T16:08:35;13.40;;;5.67;;
5662;SDS011;2854;42.692;23.364;2023-01-13T16:11:00;16.77;;;5.97;;
5662;SDS011;2854;42.692;23.364;2023-01-13T16:13:26;12.40;;;7.63;;
5662;SDS011;2854;42.692;23.364;2023-01-13T16:15:51;11.50;;;5.33;;
5662;SDS011;2854;42.692;23.364;2023-01-13T16:18:18;14.13;;;7.43;;
5662;SDS011;2854;42.692;23.364;2023-01-13T16:20:43;12.83;;;7.63;;
5662;SDS011;2854;42.692;23.364;2023-01-13T16:23:09;19.20;;;8.47;;
5662;SDS011;2854;42.692;23.364;2023-01-13T16:25:34;35.07;;;8.93;;
5662;SDS011;2854;42.692;23.364;2023-01-13T16:28:00;21.20;;;8.37;;
5662;SDS011;2854;42.692;23.364;2023-01-13T16:30:27;15.93;;;9.23;;
5662;SDS011;2854;42.692;23.364;2023-01-13T16:32:53;17.53;;;8.00;;
5662;SDS011;2854;42.692;23.364;2023-01-13T16:35:19;20.03;;;8.57;;
5662;SDS011;2854;42.692;23.364;2023-01-13T16:37:44;15.23;;;8.40;;
5662;SDS011;2854;42.692;23.364;2023-01-13T16:40:23;15.17;;;8.03;;
5662;SDS011;2854;42.692;23.364;2023-01-13T16:42:48;9.70;;;7.07;;
5662;SDS011;2854;42.692;23.364;2023-01-13T16:45:14;9.00;;;6.17;;
5662;SDS011;2854;42.692;23.364;2023-01-13T16:47:39;11.00;;;7.80;;
5662;SDS011;2854;42.692;23.364;2023-01-13T16:50:04;10.67;;;6.80;;
5662;SDS011;2854;42.692;23.364;2023-01-13T16:52:30;14.23;;;7.50;;
5662;SDS011;2854;42.692;23.364;2023-01-13T16:54:55;15.23;;;6.80;;
5662;SDS011;2854;42.692;23.364;2023-01-13T16:57:20;15.53;;;7.80;;
5662;SDS011;2854;42.692;23.364;2023-01-13T16:59:46;11.10;;;6.00;;
5662;SDS011;2854;42.692;23.364;2023-01-13T17:02:12;14.67;;;7.13;;
5662;SDS011;2854;42.692;23.364;2023-01-13T17:04:38;13.53;;;7.50;;
5662;SDS011;2854;42.692;23.364;2023-01-13T17:07:04;15.37;;;9.60;;
5662;SDS011;2854;42.692;23.364;2023-01-13T17:09:30;29.90;;;16.07;;
5662;SDS011;2854;42.692;23.364;2023-01-13T17:11:55;33.77;;;15.90;;
5662;SDS011;2854;42.692;23.364;2023-01-13T17:14:22;24.50;;;10.80;;
5662;SDS011;2854;42.692;23.364;2023-01-13T17:16:52;14.47;;;9.53;;
5662;SDS011;2854;42.692;23.364;2023-01-13T17:19:17;16.53;;;8.60;;
5662;SDS011;2854;42.692;23.364;2023-01-13T17:21:43;22.30;;;9.50;;
5662;SDS011;2854;42.692;23.364;2023-01-13T17:24:08;19.17;;;9.37;;
5662;SDS011;2854;42.692;23.364;2023-01-13T17:26:37;11.63;;;7.60;;
5662;SDS011;2854;42.692;23.364;2023-01-13T17:29:04;12.13;;;8.10;;
5662;SDS011;2854;42.692;23.364;2023-01-13T17:31:30;12.30;;;8.40;;